Time;durP1;ratioP1;P1;durP2;ratioP2;P2;SDS_P1;SDS_P2;PMS_P1;PMS_P2;Temp;Humidity;BMP_temperature;BMP_pressure;BME280_temperature;BME280_humidity;BME280_pressure;Samples;Min_cycle;Max_cycle;Signal;HPM_P1;HPM_P2
2022/03/09 00:00:08;;;;;;;12.45;8.13;;;;;;;-0.66;60.02;100103.84;4965290;28;20039;-77
2022/03/09 00:02:33;;;;;;;13.68;8.30;;;;;;;-0.62;59.12;100102.09;4965040;28;20074;-76
2022/03/09 00:04:59;;;;;;;11.15;7.85;;;;;;;-0.58;59.55;100101.25;4963237;28;20031;-79
2022/03/09 00:07:26;;;;;;;17.77;9.60;;;;;;;-0.58;59.57;100107.28;4957179;28;20035;-77
2022/03/09 00:09:51;;;;;;;15.45;8.60;;;;;;;-0.56;60.01;100109.91;4961177;28;20042;-77
2022/03/09 00:12:17;;;;;;;12.52;8.65;;;;;;;-0.53;59.22;100112.47;4964299;28;20043;-77
2022/03/09 00:14:42;;;;;;;14.73;8.95;;;;;;;-0.54;60.04;100108.16;4971590;28;20123;-77
2022/03/09 00:17:07;;;;;;;10.60;7.13;;;;;;;-0.53;59.76;100109.88;4971708;28;20043;-77
2022/03/09 00:19:33;;;;;;;10.73;7.20;;;;;;;-0.54;59.86;100115.91;4946148;28;20035;-78
2022/03/09 00:21:58;;;;;;;13.10;7.82;;;;;;;-0.55;59.94;100116.78;4958376;28;20034;-76
2022/03/09 00:24:23;;;;;;;13.00;8.57;;;;;;;-0.60;59.18;100115.91;4941105;28;20050;-77
2022/03/09 00:26:49;;;;;;;18.38;7.40;;;;;;;-0.56;59.08;100121.09;4958360;28;20046;-79
2022/03/09 00:29:14;;;;;;;12.05;7.80;;;;;;;-0.59;60.02;100115.03;4959552;28;20043;-77
2022/03/09 00:31:40;;;;;;;11.13;7.80;;;;;;;-0.62;59.79;100118.50;4941324;28;20038;-79
2022/03/09 00:34:05;;;;;;;13.23;7.28;;;;;;;-0.63;60.25;100121.97;4942233;28;20066;-77
2022/03/09 00:36:30;;;;;;;12.32;7.72;;;;;;;-0.71;60.14;100118.50;4959126;28;20470;-78
2022/03/09 00:38:56;;;;;;;11.30;8.27;;;;;;;-0.71;60.42;100124.53;4959542;28;20118;-79
2022/03/09 00:41:22;;;;;;;13.95;8.85;;;;;;;-0.73;61.04;100126.25;4943695;28;20042;-80
2022/03/09 00:43:47;;;;;;;11.57;7.55;;;;;;;-0.76;60.28;100126.25;4967579;28;20039;-78
2022/03/09 00:46:12;;;;;;;13.57;8.52;;;;;;;-0.78;61.52;100124.53;4949948;28;20391;-77
2022/03/09 00:48:38;;;;;;;13.13;7.80;;;;;;;-0.84;60.73;100127.94;4963468;28;20039;-78
2022/03/09 00:51:03;;;;;;;14.70;9.43;;;;;;;-0.90;61.27;100126.22;4939734;28;20458;-78
2022/03/09 00:53:29;;;;;;;12.45;8.43;;;;;;;-0.92;61.95;100119.31;4940087;28;20046;-78
2022/03/09 00:55:54;;;;;;;12.35;7.47;;;;;;;-0.96;61.88;100125.31;4939630;28;20058;-80
2022/03/09 00:58:19;;;;;;;17.80;8.18;;;;;;;-1.01;61.99;100119.28;4957648;28;20407;-77
2022/03/09 01:00:45;;;;;;;11.88;7.25;;;;;;;-0.99;61.53;100114.97;4957898;28;20673;-80
2022/03/09 01:03:10;;;;;;;12.70;8.43;;;;;;;-0.97;61.55;100123.59;4940187;28;20081;-80
2022/03/09 01:05:35;;;;;;;12.45;8.13;;;;;;;-0.97;62.24;100124.47;4939635;28;20039;-76
2022/03/09 01:08:01;;;;;;;11.85;7.80;;;;;;;-0.96;61.95;100126.22;4956420;28;20122;-78
2022/03/09 01:10:26;;;;;;;14.95;8.38;;;;;;;-0.98;61.97;100121.88;4939798;28;20039;-78
2022/03/09 01:12:52;;;;;;;14.95;7.45;;;;;;;-1.11;62.59;100119.25;4922292;28;20039;-77
2022/03/09 01:15:17;;;;;;;12.90;6.95;;;;;;;-1.11;62.20;100119.25;4957750;28;20039;-79
2022/03/09 01:17:42;;;;;;;12.95;8.20;;;;;;;-1.19;62.83;100113.19;4939507;28;20031;-78
2022/03/09 01:20:08;;;;;;;11.05;7.35;;;;;;;-1.20;62.81;100108.88;4957345;28;20376;-76
2022/03/09 01:22:34;;;;;;;12.82;6.47;;;;;;;-1.15;62.82;100114.06;4955962;28;20046;-78
2022/03/09 01:24:59;;;;;;;12.45;6.55;;;;;;;-1.10;62.05;100108.03;4956882;28;20388;-77
2022/03/09 01:27:25;;;;;;;10.02;5.57;;;;;;;-1.04;61.67;100109.78;4956578;28;20035;-77
2022/03/09 01:29:50;;;;;;;10.48;5.82;;;;;;;-0.99;60.50;100115.81;4938237;28;20097;-76
2022/03/09 01:32:15;;;;;;;11.10;7.20;;;;;;;-1.00;61.45;100118.44;4938827;29;20034;-77
2022/03/09 01:34:41;;;;;;;11.02;7.45;;;;;;;-1.04;61.98;100116.69;4938371;28;20089;-79
2022/03/09 01:37:07;;;;;;;11.35;7.25;;;;;;;-1.01;61.25;100111.50;4939089;28;20492;-79
2022/03/09 01:39:32;;;;;;;15.00;8.30;;;;;;;-0.99;60.98;100110.66;4956105;28;20114;-78
2022/03/09 01:41:58;;;;;;;12.60;8.10;;;;;;;-1.03;61.74;100116.69;4923155;28;20039;-79
2022/03/09 01:44:24;;;;;;;11.57;7.35;;;;;;;-1.14;61.79;100108.03;4941193;28;20063;-77
2022/03/09 01:46:51;;;;;;;12.43;6.47;;;;;;;-1.20;62.52;100110.59;4958227;28;20095;-79
2022/03/09 01:49:18;;;;;;;12.05;7.75;;;;;;;-1.25;62.68;100107.13;4958107;28;20495;-77
2022/03/09 01:51:46;;;;;;;13.80;8.30;;;;;;;-1.28;62.97;100107.97;4940021;29;20031;-79
2022/03/09 01:54:12;;;;;;;12.48;8.52;;;;;;;-1.32;63.09;100098.47;4940003;28;20035;-79
2022/03/09 01:56:38;;;;;;;13.23;8.05;;;;;;;-1.36;63.46;100092.41;4957144;28;20518;-78
2022/03/09 01:59:05;;;;;;;15.57;9.02;;;;;;;-1.36;63.13;100091.56;4940311;28;20043;-79
2022/03/09 02:01:31;;;;;;;11.80;7.50;;;;;;;-1.39;63.11;100087.25;4964564;28;20043;-77
2022/03/09 02:03:58;;;;;;;9.93;6.63;;;;;;;-1.42;63.16;100082.06;4971253;28;20169;-76
2022/03/09 02:06:23;;;;;;;12.70;7.35;;;;;;;-1.37;62.12;100089.84;4944218;28;20027;-77
2022/03/09 02:11:34;;;;;;;10.48;6.22;;;;;;;-1.37;61.82;100095.00;4928281;28;20415;-78
2022/03/09 02:14:00;;;;;;;12.75;6.80;;;;;;;-1.31;61.27;100092.44;4956787;28;20606;-77
2022/03/09 02:16:26;;;;;;;11.43;5.63;;;;;;;-1.26;61.12;100098.50;4956876;28;20387;-77
2022/03/09 02:18:51;;;;;;;10.05;6.53;;;;;;;-1.24;61.01;100094.19;4955445;28;20043;-80
2022/03/09 02:21:19;;;;;;;13.85;7.15;;;;;;;-1.28;61.51;100095.03;4955102;28;20122;-77
2022/03/09 02:23:45;;;;;;;9.20;6.68;;;;;;;-1.35;61.86;100096.75;4956031;28;20050;-77
2022/03/09 02:26:11;;;;;;;8.25;5.63;;;;;;;-1.33;61.48;100086.38;4954281;28;20035;-77
2022/03/09 02:28:38;;;;;;;9.68;5.78;;;;;;;-1.31;61.44;100088.13;4936257;29;20036;-77
2022/03/09 02:31:03;;;;;;;11.85;8.10;;;;;;;-1.34;61.78;100082.09;4937008;28;20032;-78
2022/03/09 02:33:29;;;;;;;14.30;7.68;;;;;;;-1.38;62.23;100088.09;4935671;28;20041;-78
2022/03/09 02:35:54;;;;;;;8.52;5.93;;;;;;;-1.42;62.78;100088.97;4939810;28;20444;-78
2022/03/09 02:38:19;;;;;;;9.77;6.47;;;;;;;-1.44;62.70;100091.53;4942521;28;20090;-77
2022/03/09 02:40:45;;;;;;;11.30;7.47;;;;;;;-1.45;62.45;100089.81;4942138;28;20040;-79
2022/03/09 02:43:10;;;;;;;13.20;6.55;;;;;;;-1.47;63.23;100085.50;4937720;29;20065;-77
2022/03/09 02:45:36;;;;;;;9.77;6.80;;;;;;;-1.45;62.37;100079.47;4937722;29;20054;-78
2022/03/09 02:48:01;;;;;;;14.88;8.07;;;;;;;-1.46;62.60;100075.13;4939843;28;20062;-77
2022/03/09 02:50:26;;;;;;;12.05;6.53;;;;;;;-1.49;62.40;100076.88;4940241;28;20051;-77
2022/03/09 02:52:51;;;;;;;11.18;6.95;;;;;;;-1.54;63.02;100069.94;4938992;28;20044;-78
2022/03/09 02:55:17;;;;;;;8.55;5.90;;;;;;;-1.53;62.56;100086.31;4922664;28;20052;-76
2022/03/09 02:57:43;;;;;;;18.00;6.32;;;;;;;-1.55;62.19;100075.09;4938206;28;20044;-78
2022/03/09 03:00:09;;;;;;;9.88;6.22;;;;;;;-1.50;61.94;100076.00;4938007;28;20045;-79
2022/03/09 03:02:36;;;;;;;9.80;6.60;;;;;;;-1.49;62.02;100075.13;4936453;28;20036;-77
2022/03/09 03:05:01;;;;;;;10.43;5.63;;;;;;;-1.44;62.13;100077.75;4944679;28;20097;-75
2022/03/09 03:07:27;;;;;;;11.40;6.38;;;;;;;-1.45;62.00;100073.41;4953376;28;20499;-76
2022/03/09 03:09:52;;;;;;;12.95;7.03;;;;;;;-1.49;62.15;100071.69;4952668;28;20040;-75
2022/03/09 03:12:17;;;;;;;13.20;6.50;;;;;;;-1.49;62.59;100076.88;4960865;28;20036;-75
2022/03/09 03:14:43;;;;;;;16.85;5.85;;;;;;;-1.45;62.41;100074.31;4971037;28;20058;-77
2022/03/09 03:17:08;;;;;;;11.05;6.22;;;;;;;-1.43;61.73;100066.53;4990839;28;20034;-75
2022/03/09 03:19:34;;;;;;;8.65;5.65;;;;;;;-1.45;62.41;100069.13;4970671;28;20605;-77
2022/03/09 03:22:00;;;;;;;10.23;5.82;;;;;;;-1.49;63.29;100069.09;4987021;28;20316;-76
2022/03/09 03:24:27;;;;;;;9.93;6.10;;;;;;;-1.52;62.88;100070.81;4972729;28;20466;-79
2022/03/09 03:26:53;;;;;;;12.05;6.45;;;;;;;-1.49;62.67;100071.69;4960860;28;20031;-79
2022/03/09 03:29:18;;;;;;;13.98;6.25;;;;;;;-1.53;63.06;100068.22;4973818;28;20455;-78
2022/03/09 03:31:43;;;;;;;8.55;5.63;;;;;;;-1.53;61.83;100058.75;4972680;28;20039;-78
2022/03/09 03:34:09;;;;;;;9.43;5.82;;;;;;;-1.49;61.71;100057.03;4957127;28;20051;-79
2022/03/09 03:36:34;;;;;;;10.20;6.53;;;;;;;-1.45;61.74;100055.31;4958739;28;20033;-75
2022/03/09 03:38:59;;;;;;;9.15;5.55;;;;;;;-1.45;61.90;100061.38;4991340;28;20042;-78
2022/03/09 03:41:25;;;;;;;17.40;5.85;;;;;;;-1.40;61.17;100064.84;4973553;28;20552;-79
2022/03/09 03:43:50;;;;;;;9.15;5.40;;;;;;;-1.35;61.29;100067.44;4943976;28;20363;-77
2022/03/09 03:46:15;;;;;;;9.52;6.35;;;;;;;-1.36;61.62;100069.13;4958789;28;20055;-79
2022/03/09 03:48:41;;;;;;;12.48;6.75;;;;;;;-1.39;61.60;100066.56;4959064;28;20039;-78
2022/03/09 03:51:06;;;;;;;14.85;6.63;;;;;;;-1.45;62.28;100065.66;4940560;29;20043;-79
2022/03/09 03:53:31;;;;;;;10.02;6.45;;;;;;;-1.56;62.53;100069.06;4958362;28;20059;-79
2022/03/09 03:55:57;;;;;;;11.20;6.75;;;;;;;-1.57;62.63;100061.31;4938714;28;20468;-79
2022/03/09 03:58:23;;;;;;;10.77;6.72;;;;;;;-1.54;62.38;100071.66;4954689;28;20086;-78
2022/03/09 04:00:48;;;;;;;19.73;6.57;;;;;;;-1.49;61.86;100066.53;4953615;28;20495;-78
2022/03/09 04:03:14;;;;;;;9.35;5.40;;;;;;;-1.49;62.10;100071.69;4953378;28;20031;-78
2022/03/09 04:05:39;;;;;;;11.82;6.65;;;;;;;-1.49;61.89;100075.13;4954169;28;20039;-78
2022/03/09 04:08:05;;;;;;;13.02;8.77;;;;;;;-1.49;62.12;100074.28;4936598;28;20071;-78
2022/03/09 04:10:30;;;;;;;11.73;7.57;;;;;;;-1.47;61.75;100075.16;4936852;28;20035;-78
2022/03/09 04:13:00;;;;;;;12.93;8.32;;;;;;;-1.44;62.36;100070.84;4937019;28;20035;-78
2022/03/09 04:15:25;;;;;;;11.77;6.70;;;;;;;-1.42;61.79;100063.09;4938434;28;20051;-78
2022/03/09 04:17:51;;;;;;;12.35;6.88;;;;;;;-1.40;61.76;100064.84;4955812;28;20039;-79
2022/03/09 04:20:16;;;;;;;12.98;6.53;;;;;;;-1.39;61.42;100065.69;4956040;28;20410;-79
2022/03/09 04:22:42;;;;;;;8.38;5.82;;;;;;;-1.37;61.55;100061.41;4955956;28;20059;-78
2022/03/09 04:25:08;;;;;;;11.90;6.93;;;;;;;-1.37;61.44;100058.81;4959055;28;20043;-79
2022/03/09 04:27:34;;;;;;;13.25;7.70;;;;;;;-1.39;62.17;100058.78;4955472;28;20094;-78
2022/03/09 04:29:59;;;;;;;12.57;5.95;;;;;;;-1.37;61.89;100063.97;4936074;28;20031;-77
2022/03/09 04:32:25;;;;;;;14.80;7.15;;;;;;;-1.39;62.27;100061.38;4936211;28;20086;-78
2022/03/09 04:34:52;;;;;;;11.18;6.53;;;;;;;-1.36;61.83;100061.38;4936937;28;20367;-78
2022/03/09 04:37:18;;;;;;;14.07;8.20;;;;;;;-1.40;62.31;100053.63;4955032;28;20051;-79
2022/03/09 04:39:43;;;;;;;10.35;6.72;;;;;;;-1.43;62.22;100056.19;4955713;28;20515;-79
2022/03/09 04:42:08;;;;;;;12.48;7.45;;;;;;;-1.40;62.29;100054.50;4937747;29;20051;-79
2022/03/09 04:44:34;;;;;;;11.35;6.70;;;;;;;-1.37;61.82;100043.28;4938493;28;20071;-78
2022/03/09 04:46:59;;;;;;;11.48;7.30;;;;;;;-1.34;61.60;100040.72;4939021;28;20068;-77
2022/03/09 04:49:24;;;;;;;12.50;7.20;;;;;;;-1.30;61.53;100042.47;4940716;28;20042;-78
2022/03/09 04:51:50;;;;;;;12.30;8.77;;;;;;;-1.35;61.98;100041.59;4945263;28;20063;-79
2022/03/09 04:54:15;;;;;;;10.35;6.55;;;;;;;-1.34;61.24;100043.28;4949686;28;20058;-79
2022/03/09 04:56:40;;;;;;;9.82;6.70;;;;;;;-1.25;61.42;100043.34;4959795;28;20043;-78
2022/03/09 04:59:05;;;;;;;8.45;6.30;;;;;;;-1.18;60.92;100051.94;4940649;29;20079;-78
2022/03/09 05:01:31;;;;;;;9.60;5.60;;;;;;;-1.16;60.57;100052.81;4923841;28;20042;-78
2022/03/09 05:03:56;;;;;;;8.05;6.05;;;;;;;-1.13;60.82;100056.31;4939959;28;20035;-79
2022/03/09 05:06:22;;;;;;;10.85;6.97;;;;;;;-1.11;61.08;100056.28;4939948;28;20035;-79
2022/03/09 05:08:47;;;;;;;10.65;5.43;;;;;;;-1.11;61.03;100053.69;4957917;28;20031;-78
2022/03/09 05:11:13;;;;;;;11.45;7.00;;;;;;;-1.10;60.98;100061.47;4943999;28;20500;-78
2022/03/09 05:13:38;;;;;;;12.07;6.97;;;;;;;-1.10;61.40;100058.88;4944314;28;20613;-78
2022/03/09 05:16:05;;;;;;;13.13;8.30;;;;;;;-1.16;60.76;100056.28;4939211;28;20031;-78
2022/03/09 05:18:31;;;;;;;13.48;6.60;;;;;;;-1.21;61.15;100065.75;4956103;28;20050;-77
2022/03/09 05:20:56;;;;;;;16.25;7.25;;;;;;;-1.19;61.08;100058.84;4955787;28;20039;-77
2022/03/09 05:23:22;;;;;;;14.35;7.45;;;;;;;-1.14;60.51;100061.47;4953975;28;20578;-77
2022/03/09 05:25:47;;;;;;;12.82;8.63;;;;;;;-1.12;61.17;100050.25;4954992;28;20058;-78
2022/03/09 05:28:12;;;;;;;13.75;6.78;;;;;;;-1.13;61.26;100061.47;4956427;28;20050;-77
2022/03/09 05:30:38;;;;;;;12.30;7.13;;;;;;;-1.18;61.05;100072.66;4940100;29;20736;-78
2022/03/09 05:33:03;;;;;;;10.43;6.63;;;;;;;-1.21;61.38;100078.69;4956083;28;20043;-78
2022/03/09 05:35:28;;;;;;;12.30;7.13;;;;;;;-1.18;60.89;100070.06;4955133;28;20043;-77
2022/03/09 05:37:54;;;;;;;9.90;6.38;;;;;;;-1.15;60.96;100089.06;4953403;28;20065;-77
2022/03/09 05:40:19;;;;;;;10.80;6.82;;;;;;;-1.10;61.02;100087.34;4946324;28;20454;-79
2022/03/09 05:42:44;;;;;;;9.02;5.68;;;;;;;-1.04;60.69;100085.63;4959688;28;20410;-78
2022/03/09 05:45:11;;;;;;;13.15;7.40;;;;;;;-1.00;60.69;100092.56;4939897;29;20075;-76
2022/03/09 05:47:36;;;;;;;12.48;7.07;;;;;;;-1.04;60.58;100088.22;4938167;29;20035;-77
2022/03/09 05:50:03;;;;;;;11.65;8.55;;;;;;;-1.07;61.25;100091.66;4956894;28;20031;-78
2022/03/09 05:52:29;;;;;;;11.05;7.65;;;;;;;-1.13;61.47;100092.53;4956353;28;20043;-78
2022/03/09 05:54:54;;;;;;;13.15;7.80;;;;;;;-1.17;62.06;100098.53;4937404;28;20426;-76
2022/03/09 05:57:21;;;;;;;17.05;8.10;;;;;;;-1.18;61.99;100103.69;4952626;28;20097;-76
2022/03/09 05:59:46;;;;;;;13.70;8.98;;;;;;;-1.15;61.57;100111.47;4934750;28;20035;-78
2022/03/09 06:02:12;;;;;;;11.50;7.55;;;;;;;-1.15;61.66;100101.13;4951367;28;20041;-78
2022/03/09 06:04:38;;;;;;;17.58;9.23;;;;;;;-1.16;62.05;100091.63;4953720;28;20031;-77
2022/03/09 06:07:04;;;;;;;20.52;9.60;;;;;;;-1.17;62.69;100102.84;4953944;28;20039;-77
2022/03/09 06:09:30;;;;;;;25.92;10.18;;;;;;;-1.18;62.56;100102.00;4953756;28;20043;-78
2022/03/09 06:11:56;;;;;;;17.38;8.55;;;;;;;-1.14;62.43;100105.44;4954792;28;20090;-76
2022/03/09 06:14:21;;;;;;;18.17;8.27;;;;;;;-1.12;62.04;100111.47;4953760;28;20039;-77
2022/03/09 06:16:47;;;;;;;14.90;8.57;;;;;;;-1.08;62.18;100108.91;4953718;28;20059;-78
2022/03/09 06:19:13;;;;;;;11.32;7.80;;;;;;;-1.10;62.16;100112.34;4957113;28;20042;-78
2022/03/09 06:21:39;;;;;;;15.30;8.68;;;;;;;-1.08;61.85;100108.06;4943782;29;20066;-77
2022/03/09 06:24:05;;;;;;;14.95;8.88;;;;;;;-1.02;62.23;100107.22;4956676;28;20514;-78
2022/03/09 06:26:30;;;;;;;11.73;7.63;;;;;;;-1.03;61.85;100108.94;4956107;28;20043;-79
2022/03/09 06:28:56;;;;;;;15.43;7.90;;;;;;;-1.03;62.41;100115.81;4957810;28;20089;-77
2022/03/09 06:31:21;;;;;;;14.73;8.50;;;;;;;-1.02;62.24;100109.78;4933986;28;20043;-78
2022/03/09 06:33:46;;;;;;;15.68;9.77;;;;;;;-1.00;62.33;100118.44;4968535;28;20054;-77
2022/03/09 06:36:11;;;;;;;21.05;11.77;;;;;;;-0.98;62.20;100109.81;4968302;28;20043;-77
2022/03/09 06:38:37;;;;;;;14.95;9.50;;;;;;;-0.94;62.17;100114.13;4951163;29;20031;-77
2022/03/09 06:41:02;;;;;;;16.00;10.60;;;;;;;-0.88;62.33;100113.28;4946356;28;20053;-78
2022/03/09 06:43:27;;;;;;;18.20;10.93;;;;;;;-0.80;62.29;100116.75;4942998;28;20448;-78
2022/03/09 06:45:53;;;;;;;29.85;14.98;;;;;;;-0.78;62.29;100115.03;4929748;28;20034;-78
2022/03/09 06:48:18;;;;;;;29.92;15.75;;;;;;;-0.69;62.45;100119.34;4962822;28;20042;-78
2022/03/09 06:50:44;;;;;;;41.03;17.80;;;;;;;-0.61;62.19;100114.22;4945604;28;20042;-77
2022/03/09 06:53:10;;;;;;;36.70;18.23;;;;;;;-0.50;61.97;100115.91;4959989;28;20095;-78
2022/03/09 06:55:36;;;;;;;37.42;17.08;;;;;;;-0.22;61.12;100116.81;4940475;28;20086;-78
2022/03/09 06:58:02;;;;;;;27.00;15.80;;;;;;;0.15;59.29;100114.19;4940063;28;21450;-78
2022/03/09 07:00:27;;;;;;;28.52;15.55;;;;;;;0.79;58.16;100112.28;4957612;28;20071;-79
2022/03/09 07:02:53;;;;;;;20.40;12.70;;;;;;;1.05;58.04;100120.78;4944152;28;20042;-77
2022/03/09 07:05:19;;;;;;;17.77;11.63;;;;;;;1.26;56.80;100118.97;4931894;28;20043;-78
2022/03/09 07:07:44;;;;;;;19.77;10.18;;;;;;;1.52;56.29;100117.91;4957686;28;20086;-79
2022/03/09 07:10:12;;;;;;;20.88;11.40;;;;;;;1.72;56.15;100123.81;4955511;28;20043;-80
2022/03/09 07:12:39;;;;;;;22.25;9.98;;;;;;;1.85;55.40;100116.81;4938511;29;20035;-78
2022/03/09 07:15:05;;;;;;;23.48;10.40;;;;;;;1.82;55.36;100122.91;4956666;28;20388;-77
2022/03/09 07:17:30;;;;;;;20.58;11.48;;;;;;;1.77;55.92;100127.25;4939098;28;20047;-79
2022/03/09 07:19:56;;;;;;;19.33;11.20;;;;;;;1.82;56.28;100132.41;4942264;28;20039;-77
2022/03/09 07:22:21;;;;;;;18.88;10.90;;;;;;;1.82;55.48;100128.09;4965076;28;20088;-70
2022/03/09 07:24:46;;;;;;;14.48;8.75;;;;;;;1.89;55.47;100131.50;4960874;28;20035;-69
2022/03/09 07:27:12;;;;;;;15.07;9.73;;;;;;;1.91;55.65;100130.59;4960236;28;20055;-69
2022/03/09 07:29:37;;;;;;;15.55;8.88;;;;;;;2.00;56.29;100128.81;4952709;28;20614;-69
2022/03/09 07:32:03;;;;;;;17.35;10.02;;;;;;;2.10;56.40;100135.66;4947953;28;20054;-69
2022/03/09 07:34:29;;;;;;;29.50;9.88;;;;;;;2.17;56.51;100139.03;4958355;28;20042;-68
2022/03/09 07:36:58;;;;;;;22.10;12.38;;;;;;;2.24;55.66;100131.19;4963512;28;20049;-68
2022/03/09 07:39:28;;;;;;;16.95;9.27;;;;;;;2.32;55.75;100137.16;4964961;28;20038;-69
2022/03/09 07:41:57;;;;;;;16.65;9.88;;;;;;;2.46;55.42;100138.75;4970509;28;20109;-69
2022/03/09 07:44:23;;;;;;;17.13;9.75;;;;;;;2.53;55.35;100145.63;4958343;28;20041;-69
2022/03/09 07:46:49;;;;;;;18.50;10.50;;;;;;;2.61;55.56;100143.81;4958155;28;20603;-68
2022/03/09 07:49:15;;;;;;;12.52;9.48;;;;;;;2.77;54.84;100155.75;4951968;28;20051;-68
2022/03/09 07:51:41;;;;;;;16.55;9.70;;;;;;;2.92;54.91;100156.47;4953563;28;20062;-70
2022/03/09 07:54:06;;;;;;;21.92;9.02;;;;;;;3.09;54.66;100157.13;4968988;28;20569;-68
2022/03/09 07:56:32;;;;;;;20.80;9.98;;;;;;;3.26;53.62;100156.06;4964161;28;20055;-69
2022/03/09 07:58:58;;;;;;;17.33;10.10;;;;;;;3.41;52.19;100159.28;4910073;28;20050;-79
2022/03/09 08:01:23;;;;;;;20.83;11.02;;;;;;;3.55;49.63;100164.31;4929088;28;20138;-79
2022/03/09 08:03:49;;;;;;;18.35;10.10;;;;;;;3.73;49.52;100157.97;4944288;28;20542;-80
2022/03/09 08:06:14;;;;;;;14.88;8.93;;;;;;;3.98;47.63;100154.97;4942524;28;20093;-81
2022/03/09 08:08:40;;;;;;;27.35;11.50;;;;;;;4.23;47.31;100158.03;4948894;28;20049;-79
2022/03/09 08:11:05;;;;;;;18.65;10.43;;;;;;;4.53;43.41;100161.84;4967881;28;20039;-80
2022/03/09 08:13:30;;;;;;;16.30;10.23;;;;;;;4.82;43.01;100161.28;4949739;28;20046;-77
2022/03/09 08:15:56;;;;;;;20.33;10.57;;;;;;;5.11;42.26;100157.22;4953337;28;20062;-78
2022/03/09 08:18:21;;;;;;;16.40;11.80;;;;;;;5.36;43.02;100152.31;4962961;28;20043;-78
2022/03/09 08:20:46;;;;;;;18.50;11.48;;;;;;;5.60;40.89;100158.75;4951959;28;20066;-76
2022/03/09 08:23:12;;;;;;;17.88;11.43;;;;;;;5.85;41.93;100155.56;4932400;28;20072;-76
2022/03/09 08:25:38;;;;;;;21.65;11.75;;;;;;;6.06;39.79;100165.56;4948720;29;20046;-78
2022/03/09 08:28:04;;;;;;;20.00;11.40;;;;;;;6.30;39.17;100155.34;4939073;28;20094;-76
2022/03/09 08:30:29;;;;;;;18.88;11.82;;;;;;;6.52;38.78;100159.16;4953211;28;20058;-78
2022/03/09 08:32:55;;;;;;;24.00;13.57;;;;;;;6.78;38.30;100158.44;4951388;28;20042;-77
2022/03/09 08:35:20;;;;;;;18.17;12.32;;;;;;;7.02;37.97;100161.28;4949652;28;20065;-78
2022/03/09 08:37:45;;;;;;;16.80;10.90;;;;;;;7.24;38.14;100161.53;4932689;28;20067;-77
2022/03/09 08:40:12;;;;;;;21.45;12.55;;;;;;;7.43;37.33;100172.28;4916923;29;20145;-78
2022/03/09 08:42:38;;;;;;;19.38;12.02;;;;;;;7.64;37.91;100166.41;4931733;28;20039;-79
2022/03/09 08:45:04;;;;;;;17.45;11.07;;;;;;;8.00;36.50;100168.78;4917178;28;20077;-79
2022/03/09 08:47:29;;;;;;;20.77;12.32;;;;;;;8.56;35.18;100167.78;4935854;28;20051;-79
2022/03/09 08:49:57;;;;;;;19.25;13.15;;;;;;;9.41;34.06;100179.59;4944015;28;20019;-78
2022/03/09 08:52:23;;;;;;;18.48;11.60;;;;;;;10.48;32.45;100178.84;4954589;28;20043;-77
2022/03/09 08:54:49;;;;;;;24.45;15.05;;;;;;;11.25;30.28;100172.81;4954576;28;20098;-78
2022/03/09 08:57:14;;;;;;;20.75;13.93;;;;;;;11.96;29.80;100173.91;4955815;28;20047;-76
2022/03/09 08:59:40;;;;;;;21.00;14.00;;;;;;;12.64;28.89;100171.34;4952369;28;20051;-79
2022/03/09 09:02:06;;;;;;;20.58;12.93;;;;;;;13.65;29.70;100169.53;4918142;28;20038;-79
2022/03/09 09:04:31;;;;;;;22.48;16.13;;;;;;;14.30;26.59;100167.56;4922611;29;20040;-78
2022/03/09 09:06:56;;;;;;;23.60;14.95;;;;;;;15.09;26.92;100168.19;4930219;28;20111;-78
2022/03/09 09:09:22;;;;;;;21.33;14.85;;;;;;;15.87;24.88;100169.44;4931353;28;20047;-78
2022/03/09 09:11:47;;;;;;;19.70;15.38;;;;;;;16.02;24.41;100161.41;4931398;28;20043;-80
2022/03/09 09:14:13;;;;;;;27.77;18.13;;;;;;;16.41;24.00;100162.38;4933506;28;20444;-78
2022/03/09 09:16:41;;;;;;;24.60;17.60;;;;;;;16.94;22.94;100172.03;4933709;28;20040;-77
2022/03/09 09:19:07;;;;;;;22.88;16.38;;;;;;;17.36;22.46;100172.63;4931821;28;20032;-78
2022/03/09 09:21:32;;;;;;;21.77;17.50;;;;;;;17.62;22.28;100172.56;4931560;28;20039;-79
2022/03/09 09:23:57;;;;;;;21.90;17.45;;;;;;;17.67;22.42;100178.44;4931818;28;20039;-78
2022/03/09 09:26:23;;;;;;;26.73;18.02;;;;;;;17.97;22.02;100174.53;4932086;28;20514;-78
2022/03/09 09:28:48;;;;;;;23.75;16.92;;;;;;;18.29;21.03;100174.78;4937023;28;20123;-79
2022/03/09 09:31:14;;;;;;;23.48;17.23;;;;;;;18.78;21.50;100172.88;4938430;28;20495;-79
2022/03/09 09:33:39;;;;;;;22.52;16.48;;;;;;;19.13;20.44;100174.66;4938468;28;20039;-79
2022/03/09 09:36:05;;;;;;;24.25;18.20;;;;;;;18.79;20.30;100175.44;4948911;28;20058;-78
2022/03/09 09:38:30;;;;;;;24.23;17.90;;;;;;;18.98;20.29;100168.69;4957856;28;20309;-79
2022/03/09 09:40:56;;;;;;;21.00;18.40;;;;;;;19.30;20.24;100171.47;4940537;28;20419;-78
2022/03/09 09:43:24;;;;;;;24.58;19.45;;;;;;;19.63;19.69;100161.72;4958672;28;20043;-78
2022/03/09 09:45:50;;;;;;;24.10;18.25;;;;;;;20.10;19.26;100165.88;4954377;28;20035;-77
2022/03/09 09:48:16;;;;;;;24.70;18.58;;;;;;;20.02;18.84;100170.16;4936621;28;20552;-77
2022/03/09 09:50:43;;;;;;;25.38;19.25;;;;;;;20.02;18.69;100167.50;4937042;29;20062;-79
2022/03/09 09:53:11;;;;;;;25.27;18.60;;;;;;;20.40;18.35;100169.63;4950114;28;20066;-78
2022/03/09 09:55:37;;;;;;;24.10;19.08;;;;;;;20.70;17.83;100171.59;4960084;28;20042;-78
2022/03/09 09:58:03;;;;;;;23.95;19.00;;;;;;;20.73;17.74;100167.81;4959568;28;20042;-77
2022/03/09 10:00:29;;;;;;;29.92;19.77;;;;;;;20.97;17.36;100162.16;4939212;28;20040;-79
2022/03/09 10:02:55;;;;;;;36.83;22.08;;;;;;;20.93;17.22;100160.72;4955917;28;20046;-79
2022/03/09 10:05:20;;;;;;;30.23;19.10;;;;;;;21.20;17.45;100169.03;4940365;28;20051;-79
2022/03/09 10:08:07;;;;;;;24.13;17.80;;;;;;;21.33;16.92;100176.84;4940032;28;20039;-78
2022/03/09 10:10:35;;;;;;;23.42;18.10;;;;;;;21.35;17.01;100166.81;4952744;28;20042;-81
2022/03/09 10:13:22;;;;;;;22.85;17.38;;;;;;;21.69;16.25;100169.22;4954858;28;20078;-78
2022/03/09 10:16:05;;;;;;;46.80;21.98;;;;;;;22.07;16.70;100168.44;4933820;28;20047;-79
2022/03/09 10:18:31;;;;;;;29.38;19.13;;;;;;;22.39;15.81;100161.97;4917917;28;20039;-78
2022/03/09 10:21:08;;;;;;;23.88;20.10;;;;;;;22.01;15.85;100160.94;4946691;28;20054;-78
2022/03/09 10:23:33;;;;;;;24.83;18.73;;;;;;;22.15;15.66;100159.69;4947695;28;20055;-78
2022/03/09 10:26:02;;;;;;;25.25;20.00;;;;;;;22.04;15.84;100157.97;4948404;28;20670;-78
2022/03/09 10:28:28;;;;;;;28.73;18.60;;;;;;;22.23;15.45;100153.66;4947716;28;20043;-76
2022/03/09 10:30:53;;;;;;;25.23;20.00;;;;;;;22.09;15.67;100150.34;4931311;28;20524;-80
2022/03/09 10:33:19;;;;;;;25.48;19.33;;;;;;;22.14;15.77;100149.91;4915741;28;20043;-77
2022/03/09 10:35:49;;;;;;;26.52;19.40;;;;;;;22.29;15.56;100151.22;4953375;28;20043;-77
2022/03/09 10:38:14;;;;;;;55.08;26.77;;;;;;;22.53;15.52;100149.09;4965427;28;20063;-77
2022/03/09 10:40:45;;;;;;;29.43;19.77;;;;;;;22.28;15.68;100154.91;4961139;28;20043;-79
2022/03/09 10:43:28;;;;;;;25.23;18.27;;;;;;;22.24;15.60;100153.47;4955832;28;20310;-79
2022/03/09 10:46:11;;;;;;;28.83;22.35;;;;;;;21.26;16.25;100150.69;4952857;28;20114;-78
2022/03/09 10:48:57;;;;;;;26.10;17.80;;;;;;;20.68;17.05;100144.06;4935960;28;20073;-79
2022/03/09 10:51:40;;;;;;;58.95;43.90;;;;;;;20.09;17.30;100158.81;4947317;28;20141;-80
2022/03/09 10:54:16;;;;;;;54.03;31.33;;;;;;;19.08;18.30;100159.81;4947368;28;20035;-77
2022/03/09 10:56:43;;;;;;;26.23;18.08;;;;;;;18.67;18.85;100160.31;4953151;28;20495;-78
2022/03/09 10:59:20;;;;;;;70.47;24.83;;;;;;;18.45;19.06;100156.63;4952680;28;20748;-78
2022/03/09 11:02:09;;;;;;;25.10;17.67;;;;;;;18.00;19.76;100159.13;4933230;28;20045;-82
2022/03/09 11:04:36;;;;;;;22.77;17.77;;;;;;;17.33;20.00;100162.19;4932693;28;20130;-80
2022/03/09 11:07:02;;;;;;;25.25;19.00;;;;;;;16.88;20.59;100164.50;4948113;28;20053;-78
2022/03/09 11:09:29;;;;;;;24.63;19.48;;;;;;;16.55;20.63;100156.13;4947111;28;20170;-78
2022/03/09 11:11:55;;;;;;;25.00;17.58;;;;;;;16.19;21.46;100158.47;4945882;28;20429;-78
2022/03/09 11:14:21;;;;;;;30.33;21.42;;;;;;;16.09;21.51;100147.59;4946722;28;20039;-78